createdAt,value
2017-12-12T00:00:06.751Z,95.4
2017-12-12T00:01:15.724Z,95.03
2017-12-12T00:02:24.546Z,95.4
2017-12-12T00:03:33.655Z,95.12
2017-12-12T00:04:42.482Z,95.21
2017-12-12T00:05:51.305Z,94.93
2017-12-12T00:07:00.277Z,94.08
2017-12-12T00:08:09.100Z,94.18
2017-12-12T00:09:17.924Z,94.08
2017-12-12T00:10:26.748Z,94.08
2017-12-12T00:11:35.571Z,95.03
2017-12-12T00:12:44.444Z,95.31
2017-12-12T00:13:53.269Z,94.27
2017-12-12T00:15:02.091Z,94.74
2017-12-12T00:16:10.915Z,94.27
2017-12-12T00:17:19.737Z,95.31
2017-12-12T00:18:28.610Z,93.7
2017-12-12T00:19:37.434Z,95.12
2017-12-12T00:20:46.258Z,95.12
2017-12-12T00:21:55.081Z,95.12
2017-12-12T00:23:04.251Z,94.74
2017-12-12T00:24:13.379Z,94.56
2017-12-12T00:25:22.479Z,94.56
2017-12-12T00:26:31.581Z,94.74
2017-12-12T00:27:40.406Z,94.56
2017-12-12T00:28:49.231Z,95.03
2017-12-12T00:29:58.105Z,95.03
2017-12-12T00:31:06.928Z,95.21
2017-12-12T00:32:15.751Z,94.27
2017-12-12T00:33:24.576Z,94.56
2017-12-12T00:34:33.404Z,94.74
2017-12-12T00:35:42.527Z,94.74
2017-12-12T00:36:51.352Z,94.93
2017-12-12T00:38:00.174Z,94.93
2017-12-12T00:39:08.997Z,95.21
2017-12-12T00:40:17.822Z,94.74
2017-12-12T00:41:26.946Z,94.74
2017-12-12T00:42:35.772Z,95.31
2017-12-12T00:43:44.876Z,95.12
2017-12-12T00:44:53.977Z,94.84
2017-12-12T00:46:02.797Z,94.93
2017-12-12T00:47:11.997Z,95.03
2017-12-12T00:48:20.829Z,95.4
2017-12-12T00:49:29.656Z,95.4
2017-12-12T00:50:38.481Z,94.74
2017-12-12T00:51:47.306Z,94.93
2017-12-12T00:52:56.431Z,95.12
2017-12-12T00:54:05.252Z,94.74
2017-12-12T00:55:14.077Z,94.37
2017-12-12T00:56:22.898Z,94.74
2017-12-12T00:57:31.723Z,94.56
2017-12-12T00:58:40.600Z,94.27
2017-12-12T00:59:49.699Z,94.46
2017-12-12T01:00:58.794Z,94.74
2017-12-12T01:02:07.620Z,94.56
2017-12-12T01:03:16.718Z,94.08
2017-12-12T01:04:25.691Z,93.7
2017-12-12T01:05:34.896Z,94.08
2017-12-12T01:06:43.720Z,93.99
2017-12-12T01:07:52.544Z,94.46
2017-12-12T01:09:01.368Z,93.32
2017-12-12T01:10:10.243Z,94.08
2017-12-12T01:11:19.067Z,93.89
2017-12-12T01:12:27.890Z,94.27
2017-12-12T01:13:36.711Z,94.18
2017-12-12T01:14:45.539Z,93.8
2017-12-12T01:15:54.358Z,91.81
2017-12-12T01:17:03.738Z,92.38
2017-12-12T01:18:12.562Z,92.66
2017-12-12T01:19:21.385Z,91.15
2017-12-12T01:20:30.206Z,91.38
2017-12-12T01:21:39.181Z,91.53
2017-12-12T01:22:48.005Z,90.44
2017-12-12T01:23:56.830Z,91.95
2017-12-12T01:25:05.654Z,91.34
2017-12-12T01:26:14.477Z,89.73
2017-12-12T01:27:23.400Z,90.11
2017-12-12T01:28:32.224Z,90.06
2017-12-12T01:29:41.051Z,90.15
2017-12-12T01:30:49.875Z,90.06
2017-12-12T01:31:58.973Z,90.63
2017-12-12T01:33:08.104Z,90.2
2017-12-12T01:34:16.926Z,90.11
2017-12-12T01:35:25.748Z,89.82
2017-12-12T01:36:34.571Z,90.58
2017-12-12T01:37:43.393Z,90.3
2017-12-12T01:38:52.266Z,90.3
2017-12-12T01:40:01.092Z,90.77
2017-12-12T01:41:10.189Z,89.73
2017-12-12T01:42:19.010Z,90.39
2017-12-12T01:43:27.839Z,90.58
2017-12-12T01:44:36.956Z,90.01
2017-12-12T01:45:45.779Z,89.16
2017-12-12T01:46:54.602Z,89.44
2017-12-12T01:48:03.425Z,89.16
2017-12-12T01:49:12.250Z,89.49
2017-12-12T01:50:21.674Z,89.68
2017-12-12T01:51:30.464Z,89.77
2017-12-12T01:52:39.287Z,89.44
2017-12-12T01:53:48.109Z,89.54
2017-12-12T01:54:57.202Z,89.44
2017-12-12T01:56:06.177Z,89.44
2017-12-12T01:57:15.002Z,90.34
2017-12-12T01:58:24.099Z,89.44
2017-12-12T01:59:32.921Z,89.44
2017-12-12T02:00:41.744Z,90.01
2017-12-12T02:01:50.816Z,90.2
2017-12-12T02:02:59.637Z,90.2
2017-12-12T02:04:08.457Z,89.35
2017-12-12T02:05:17.276Z,89.44
2017-12-12T02:06:26.097Z,89.44
2017-12-12T02:07:34.918Z,88.68
2017-12-12T02:08:43.742Z,88.68
2017-12-12T02:09:52.565Z,89.73
2017-12-12T02:11:01.386Z,89.44
2017-12-12T02:12:10.207Z,89.82
2017-12-12T02:13:19.328Z,88.97
2017-12-12T02:14:28.150Z,89.16
2017-12-12T02:15:36.971Z,89.06
2017-12-12T02:16:45.795Z,88.97
2017-12-12T02:17:54.619Z,88.73
2017-12-12T02:19:03.544Z,88.97
2017-12-12T02:20:12.366Z,89.16
2017-12-12T02:21:21.189Z,88.87
2017-12-12T02:22:30.287Z,88.78
2017-12-12T02:23:39.381Z,88.02
2017-12-12T02:24:48.203Z,88.97
2017-12-12T02:25:57.025Z,89.06
2017-12-12T02:27:05.847Z,88.97
2017-12-12T02:28:14.671Z,88.87
2017-12-12T02:29:23.769Z,88.21
2017-12-12T02:30:33.016Z,88.59
2017-12-12T02:31:41.838Z,88.12
2017-12-12T02:32:50.662Z,88.87
2017-12-12T02:33:59.483Z,88.87
2017-12-12T02:35:08.578Z,88.97
2017-12-12T02:36:17.449Z,88.4
2017-12-12T02:37:26.271Z,88.78
2017-12-12T02:38:35.367Z,88.12
2017-12-12T02:39:44.187Z,88.78
2017-12-12T02:40:53.012Z,88.4
2017-12-12T02:42:01.987Z,87.55
2017-12-12T02:43:11.091Z,88.4
2017-12-12T02:44:19.914Z,88.49
2017-12-12T02:45:28.734Z,88.21
2017-12-12T02:46:37.556Z,88.78
2017-12-12T02:47:46.531Z,88.78
2017-12-12T02:48:55.631Z,87.65
2017-12-12T02:50:04.454Z,87.27
2017-12-12T02:51:13.275Z,87.27
2017-12-12T02:52:22.098Z,87.36
2017-12-12T02:53:30.973Z,86.7
2017-12-12T02:54:39.795Z,87.27
2017-12-12T02:55:48.897Z,87.17
2017-12-12T02:56:57.720Z,87.27
2017-12-12T02:58:06.542Z,87.08
2017-12-12T02:59:15.738Z,86.79
2017-12-12T03:00:24.561Z,85.94
2017-12-12T03:01:33.382Z,86.13
2017-12-12T03:02:42.205Z,85.85
2017-12-12T03:03:51.300Z,86.51
2017-12-12T03:05:00.123Z,86.41
2017-12-12T03:06:08.949Z,86.04
2017-12-12T03:07:17.764Z,85.66
2017-12-12T03:08:26.590Z,86.51
2017-12-12T03:09:35.681Z,86.13
2017-12-12T03:10:44.656Z,86.04
2017-12-12T03:11:53.759Z,86.41
2017-12-12T03:13:02.577Z,86.32
2017-12-12T03:14:11.405Z,86.04
2017-12-12T03:15:20.494Z,85.9
2017-12-12T03:16:29.367Z,85.85
2017-12-12T03:17:38.188Z,85.09
2017-12-12T03:18:47.287Z,85.94
2017-12-12T03:19:56.378Z,85.75
2017-12-12T03:21:05.200Z,85.38
2017-12-12T03:22:14.175Z,85.75
2017-12-12T03:23:23.274Z,85.66
2017-12-12T03:24:32.095Z,85.94
2017-12-12T03:25:40.918Z,85.66
2017-12-12T03:26:49.740Z,84.81
2017-12-12T03:27:58.762Z,85.19
2017-12-12T03:29:07.583Z,85.09
2017-12-12T03:30:16.407Z,85.19
2017-12-12T03:31:25.229Z,85.19
2017-12-12T03:32:34.051Z,85.19
2017-12-12T03:33:42.871Z,85.09
2017-12-12T03:34:51.694Z,84.61
2017-12-12T03:36:00.793Z,84.33
2017-12-12T03:37:09.615Z,84.23
2017-12-12T03:38:18.439Z,85
2017-12-12T03:39:27.314Z,85
2017-12-12T03:40:36.134Z,84.33
2017-12-12T03:41:44.956Z,84.05
2017-12-12T03:42:53.777Z,84.42
2017-12-12T03:44:02.599Z,84.33
2017-12-12T03:45:11.722Z,85.09
2017-12-12T03:46:20.544Z,84.52
2017-12-12T03:47:29.366Z,85.28
2017-12-12T03:48:38.188Z,85.38
2017-12-12T03:49:47.010Z,85.09
2017-12-12T03:50:55.881Z,84.81
2017-12-12T03:52:04.703Z,84.23
2017-12-12T03:53:13.525Z,83.67
2017-12-12T03:54:22.623Z,83.95
2017-12-12T03:55:31.442Z,83.76
2017-12-12T03:56:40.786Z,84.33
2017-12-12T03:57:49.608Z,84.33
2017-12-12T03:58:58.432Z,83.76
2017-12-12T04:00:07.252Z,83.76
2017-12-12T04:01:16.074Z,84.14
2017-12-12T04:02:24.948Z,84.05
2017-12-12T04:03:33.766Z,83.67
2017-12-12T04:04:42.587Z,84.05
2017-12-12T04:05:51.409Z,83.86
2017-12-12T04:07:00.229Z,84.81
2017-12-12T04:08:09.150Z,83.86
2017-12-12T04:09:17.970Z,83.95
2017-12-12T04:10:26.791Z,84.42
2017-12-12T04:11:35.612Z,84.23
2017-12-12T04:12:44.432Z,83.48
2017-12-12T04:13:53.403Z,83.58
2017-12-12T04:15:02.223Z,84.42
2017-12-12T04:16:11.046Z,83.95
2017-12-12T04:17:19.865Z,84.23
2017-12-12T04:18:28.691Z,83.58
2017-12-12T04:19:37.765Z,83.29
2017-12-12T04:20:46.585Z,83.39
2017-12-12T04:21:55.407Z,83.29
2017-12-12T04:23:04.232Z,83.48
2017-12-12T04:24:13.057Z,83.39
2017-12-12T04:25:22.266Z,84.56
2017-12-12T04:26:31.023Z,83.76
2017-12-12T04:27:39.844Z,83.81
2017-12-12T04:28:48.948Z,84.23
2017-12-12T04:29:58.320Z,84.14
2017-12-12T04:31:07.242Z,83.67
2017-12-12T04:32:16.065Z,83.67
2017-12-12T04:33:24.885Z,83.48
2017-12-12T04:34:33.706Z,84.42
2017-12-12T04:35:42.527Z,84.33
2017-12-12T04:36:51.932Z,83.67
2017-12-12T04:38:00.754Z,84.05
2017-12-12T04:39:09.576Z,84.05
2017-12-12T04:40:18.397Z,83.67
2017-12-12T04:41:27.497Z,82.91
2017-12-12T04:42:36.369Z,83.58
2017-12-12T04:43:45.190Z,84.05
2017-12-12T04:44:54.011Z,83.81
2017-12-12T04:46:02.835Z,83.48
2017-12-12T04:47:11.930Z,83.58
2017-12-12T04:48:20.903Z,83.76
2017-12-12T04:49:29.724Z,83.58
2017-12-12T04:50:38.548Z,83.39
2017-12-12T04:51:47.365Z,83.39
2017-12-12T04:52:56.187Z,83.01
2017-12-12T04:54:05.160Z,82.15
2017-12-12T04:55:13.984Z,83.24
2017-12-12T04:56:22.803Z,83.29
2017-12-12T04:57:31.625Z,82.91
2017-12-12T04:58:40.446Z,82.82
2017-12-12T04:59:49.842Z,82.91
2017-12-12T05:00:58.670Z,82.72
2017-12-12T05:02:07.497Z,83.01
2017-12-12T05:03:16.318Z,83.01
2017-12-12T05:04:25.141Z,82.91
2017-12-12T05:05:34.071Z,82.15
2017-12-12T05:06:42.883Z,82.15
2017-12-12T05:07:51.706Z,82.06
2017-12-12T05:09:00.529Z,81.68
2017-12-12T05:10:09.351Z,80.74
2017-12-12T05:11:18.324Z,81.4
2017-12-12T05:12:27.147Z,81.4
2017-12-12T05:13:35.969Z,81.4
2017-12-12T05:14:44.792Z,81.3
2017-12-12T05:15:53.885Z,81.96
2017-12-12T05:17:02.861Z,80.93
2017-12-12T05:18:11.961Z,81.77
2017-12-12T05:19:20.780Z,81.49
2017-12-12T05:20:29.607Z,80.83
2017-12-12T05:21:38.438Z,81.49
2017-12-12T05:22:47.404Z,81.68
2017-12-12T05:23:56.223Z,81.21
2017-12-12T05:25:05.322Z,81.49
2017-12-12T05:26:14.145Z,80.45
2017-12-12T05:27:22.965Z,81.4
2017-12-12T05:28:31.887Z,81.49
2017-12-12T05:29:40.709Z,80.93
2017-12-12T05:30:49.805Z,81.4
2017-12-12T05:31:58.900Z,80.64
2017-12-12T05:33:07.720Z,80.93
2017-12-12T05:34:16.643Z,80.45
2017-12-12T05:35:25.465Z,80.64
2017-12-12T05:36:34.559Z,80.36
2017-12-12T05:37:43.381Z,80.55
2017-12-12T05:38:52.208Z,80.45
2017-12-12T05:40:01.030Z,80.93
2017-12-12T05:41:09.853Z,80.26
2017-12-12T05:42:18.676Z,80.93
2017-12-12T05:43:27.506Z,80.74
2017-12-12T05:44:36.630Z,80.26
2017-12-12T05:45:45.450Z,80.36
2017-12-12T05:46:54.269Z,80.64
2017-12-12T05:48:03.364Z,80.26
2017-12-12T05:49:12.186Z,80.83
2017-12-12T05:50:21.005Z,80.36
2017-12-12T05:51:29.828Z,79.88
2017-12-12T05:52:38.651Z,79.69
2017-12-12T05:53:47.473Z,79.88
2017-12-12T05:54:56.295Z,80.45
2017-12-12T05:56:05.116Z,80.55
2017-12-12T05:57:13.937Z,79.22
2017-12-12T05:58:22.761Z,79.69
2017-12-12T05:59:31.587Z,79.69
2017-12-12T06:00:40.406Z,79.22
2017-12-12T06:01:49.227Z,79.93
2017-12-12T06:02:58.052Z,79.88
2017-12-12T06:04:06.873Z,79.98
2017-12-12T06:05:15.800Z,79.88
2017-12-12T06:06:24.625Z,80.07
2017-12-12T06:07:33.450Z,79.69
2017-12-12T06:08:42.271Z,79.69
2017-12-12T06:09:51.097Z,79.32
2017-12-12T06:11:00.321Z,79.32
2017-12-12T06:12:09.141Z,79.45
2017-12-12T06:13:17.967Z,80.07
2017-12-12T06:14:26.791Z,79.22
2017-12-12T06:15:35.611Z,79.98
2017-12-12T06:16:44.485Z,79.98
2017-12-12T06:17:53.647Z,79.79
2017-12-12T06:19:02.695Z,79.88
2017-12-12T06:20:11.518Z,79.98
2017-12-12T06:21:20.339Z,79.79
2017-12-12T06:22:29.314Z,79.88
2017-12-12T06:23:38.138Z,79.79
2017-12-12T06:24:46.963Z,79.32
2017-12-12T06:25:55.787Z,79.98
2017-12-12T06:27:04.610Z,79.5
2017-12-12T06:28:13.484Z,79.13
2017-12-12T06:29:22.593Z,79.32
2017-12-12T06:30:31.415Z,79.22
2017-12-12T06:31:40.541Z,79.5
2017-12-12T06:32:49.363Z,79.41
2017-12-12T06:33:58.588Z,79.03
2017-12-12T06:35:07.410Z,79.5
2017-12-12T06:36:16.241Z,79.32
2017-12-12T06:37:25.064Z,79.5
2017-12-12T06:38:33.939Z,79.6
2017-12-12T06:39:43.011Z,79.32
2017-12-12T06:40:51.835Z,79.32
2017-12-12T06:42:00.933Z,79.5
2017-12-12T06:43:09.756Z,79.5
2017-12-12T06:44:18.580Z,79.5
2017-12-12T06:45:27.605Z,78.85
2017-12-12T06:46:36.426Z,79.32
2017-12-12T06:47:45.250Z,79.32
2017-12-12T06:48:54.073Z,79.32
2017-12-12T06:50:02.893Z,79.41
2017-12-12T06:51:11.717Z,79.6
2017-12-12T06:52:20.542Z,79.22
2017-12-12T06:53:29.365Z,78.85
2017-12-12T06:54:38.188Z,79.41
2017-12-12T06:55:47.017Z,78.94
2017-12-12T06:56:56.263Z,78.94
2017-12-12T06:58:05.097Z,78.56
2017-12-12T06:59:13.922Z,78.46
2017-12-12T07:00:22.743Z,78.27
2017-12-12T07:01:31.840Z,78.46
2017-12-12T07:02:40.668Z,78.85
2017-12-12T07:03:49.485Z,78.37
2017-12-12T07:04:58.309Z,78.18
2017-12-12T07:06:07.412Z,78.94
2017-12-12T07:07:16.236Z,78.37
2017-12-12T07:08:25.061Z,78.18
2017-12-12T07:09:34.159Z,78.65
2017-12-12T07:10:42.981Z,78.18
2017-12-12T07:11:51.804Z,78.37
2017-12-12T07:13:00.625Z,78.75
2017-12-12T07:14:09.548Z,78.94
2017-12-12T07:15:18.371Z,78.56
2017-12-12T07:16:27.195Z,78.75
2017-12-12T07:17:36.017Z,78.85
2017-12-12T07:18:44.839Z,78.8
2017-12-12T07:19:53.712Z,78.18
2017-12-12T07:21:02.536Z,78.46
2017-12-12T07:22:11.358Z,78.56
2017-12-12T07:23:20.183Z,77.99
2017-12-12T07:24:29.004Z,78.27
2017-12-12T07:25:37.977Z,78.85
2017-12-12T07:26:46.800Z,78.75
2017-12-12T07:27:55.627Z,78.08
2017-12-12T07:29:04.447Z,78.56
2017-12-12T07:30:13.271Z,78.65
2017-12-12T07:31:22.195Z,78.56
2017-12-12T07:32:31.018Z,78.23
2017-12-12T07:33:39.840Z,77.89
2017-12-12T07:34:48.661Z,77.89
2017-12-12T07:35:57.486Z,78.08
2017-12-12T07:37:06.361Z,78.37
2017-12-12T07:38:15.182Z,78.08
2017-12-12T07:39:24.004Z,77.99
2017-12-12T07:40:32.828Z,77.7
2017-12-12T07:41:41.656Z,78.08
2017-12-12T07:42:50.623Z,78.27
2017-12-12T07:43:59.446Z,78.27
2017-12-12T07:45:08.270Z,78.18
2017-12-12T07:46:17.095Z,77.99
2017-12-12T07:47:26.470Z,78.27
2017-12-12T07:48:35.441Z,78.27
2017-12-12T07:49:44.264Z,78.08
2017-12-12T07:50:53.087Z,77.89
2017-12-12T07:52:01.910Z,78.27
2017-12-12T07:53:10.731Z,78.85
2017-12-12T07:54:19.705Z,78.08
2017-12-12T07:55:28.804Z,78.37
2017-12-12T07:56:37.626Z,78.27
2017-12-12T07:57:46.450Z,77.8
2017-12-12T07:58:55.274Z,77.33
2017-12-12T08:00:04.473Z,78.37
2017-12-12T08:01:13.296Z,77.89
2017-12-12T08:02:22.123Z,77.89
2017-12-12T08:03:30.949Z,77.42
2017-12-12T08:04:39.773Z,77.99
2017-12-12T08:05:48.747Z,77.33
2017-12-12T08:06:57.574Z,77.89
2017-12-12T08:08:06.400Z,77.51
2017-12-12T08:09:15.497Z,77.29
2017-12-12T08:10:24.325Z,76.95
2017-12-12T08:11:33.471Z,77.33
2017-12-12T08:12:42.572Z,77.42
2017-12-12T08:13:51.393Z,77.33
2017-12-12T08:15:00.225Z,77.42
2017-12-12T08:16:09.048Z,77.14
2017-12-12T08:17:18.171Z,77.14
2017-12-12T08:18:26.996Z,77.14
2017-12-12T08:19:35.818Z,77.14
2017-12-12T08:20:44.641Z,77.14
2017-12-12T08:21:53.467Z,77.14
2017-12-12T08:23:02.288Z,76.76
2017-12-12T08:24:11.112Z,77.23
2017-12-12T08:25:19.934Z,77.23
2017-12-12T08:26:28.755Z,76.48
2017-12-12T08:27:37.580Z,76.29
2017-12-12T08:28:46.804Z,76.57
2017-12-12T08:29:55.624Z,77.04
2017-12-12T08:31:04.448Z,76.95
2017-12-12T08:32:13.273Z,77.14
2017-12-12T08:33:22.373Z,77.14
2017-12-12T08:34:31.347Z,76.48
2017-12-12T08:35:40.167Z,76.48
2017-12-12T08:36:48.993Z,76.76
2017-12-12T08:37:57.818Z,76.95
2017-12-12T08:39:06.641Z,76.48
2017-12-12T08:40:15.747Z,76.29
2017-12-12T08:41:24.571Z,76.19
2017-12-12T08:42:33.393Z,76.95
2017-12-12T08:43:42.217Z,76
2017-12-12T08:44:51.040Z,76.42
2017-12-12T08:45:59.963Z,76.38
2017-12-12T08:47:08.788Z,76.48
2017-12-12T08:48:17.612Z,76.29
2017-12-12T08:49:26.434Z,76.1
2017-12-12T08:50:35.256Z,76.29
2017-12-12T08:51:44.230Z,75.81
2017-12-12T08:52:53.102Z,75.81
2017-12-12T08:54:01.927Z,75.34
2017-12-12T08:55:10.750Z,75.72
2017-12-12T08:56:19.573Z,75.91
2017-12-12T08:57:28.496Z,75.62
2017-12-12T08:58:37.323Z,75.21
2017-12-12T08:59:46.140Z,74.87
2017-12-12T09:00:54.963Z,74.58
2017-12-12T09:02:03.786Z,74.87
2017-12-12T09:03:12.724Z,73.98
2017-12-12T09:04:21.822Z,73.35
2017-12-12T09:05:30.644Z,73.54
2017-12-12T09:06:39.465Z,72.28
2017-12-12T09:07:48.288Z,72.97
2017-12-12T09:08:57.107Z,72.22
2017-12-12T09:10:05.943Z,72.18
2017-12-12T09:11:15.041Z,72.22
2017-12-12T09:12:24.137Z,71.27
2017-12-12T09:13:33.233Z,71.27
2017-12-12T09:14:42.162Z,71.55
2017-12-12T09:15:50.980Z,70.61
2017-12-12T09:16:59.802Z,70.7
2017-12-12T09:18:08.625Z,70.98
2017-12-12T09:19:17.449Z,71.08
2017-12-12T09:20:26.699Z,69.85
2017-12-12T09:21:35.525Z,70.04
2017-12-12T09:22:44.344Z,70.51
2017-12-12T09:23:53.169Z,70.32
2017-12-12T09:25:01.992Z,70.32
2017-12-12T09:26:10.815Z,70.04
2017-12-12T09:27:19.660Z,70.7
2017-12-12T09:28:28.460Z,70.51
2017-12-12T09:29:37.284Z,70.42
2017-12-12T09:30:46.113Z,70.7
2017-12-12T09:31:54.978Z,70.04
2017-12-12T09:33:03.800Z,70.14
2017-12-12T09:34:12.623Z,69.47
2017-12-12T09:35:21.444Z,68.9
2017-12-12T09:36:30.268Z,69
2017-12-12T09:37:39.240Z,69.09
2017-12-12T09:38:48.064Z,69.28
2017-12-12T09:39:56.893Z,68.62
2017-12-12T09:41:05.712Z,69.38
2017-12-12T09:42:14.535Z,68.52
2017-12-12T09:43:23.511Z,68.71
2017-12-12T09:44:32.336Z,68.62
2017-12-12T09:45:41.161Z,68.43
2017-12-12T09:46:49.987Z,68.08
2017-12-12T09:47:59.084Z,68.15
2017-12-12T09:49:07.958Z,68.15
2017-12-12T09:50:16.784Z,68.52
2017-12-12T09:51:25.611Z,68.24
2017-12-12T09:52:34.433Z,67.96
2017-12-12T09:53:43.258Z,68.33
2017-12-12T09:54:52.233Z,68.15
2017-12-12T09:56:01.056Z,68.05
2017-12-12T09:57:09.882Z,67.68
2017-12-12T09:58:18.701Z,68.24
2017-12-12T09:59:27.523Z,68.05
2017-12-12T10:00:36.497Z,67.58
2017-12-12T10:01:45.319Z,67.86
2017-12-12T10:02:54.144Z,67.01
2017-12-12T10:04:02.969Z,66.44
2017-12-12T10:05:11.792Z,67.01
2017-12-12T10:06:21.192Z,66.92
2017-12-12T10:07:30.016Z,66.92
2017-12-12T10:08:38.841Z,66.92
2017-12-12T10:09:47.951Z,66.53
2017-12-12T10:10:56.775Z,65.69
2017-12-12T10:12:05.602Z,66.38
2017-12-12T10:13:14.424Z,66.44
2017-12-12T10:14:23.246Z,66.63
2017-12-12T10:15:32.071Z,66.35
2017-12-12T10:16:40.894Z,66.73
2017-12-12T10:17:49.814Z,66.16
2017-12-12T10:18:58.638Z,65.97
2017-12-12T10:20:07.460Z,66.44
2017-12-12T10:21:16.285Z,66.16
2017-12-12T10:22:25.395Z,66.35
2017-12-12T10:23:34.372Z,66.44
2017-12-12T10:24:43.196Z,65.78
2017-12-12T10:25:52.020Z,65.91
2017-12-12T10:27:00.846Z,66.35
2017-12-12T10:28:09.669Z,65.97
2017-12-12T10:29:18.494Z,66.44
2017-12-12T10:30:27.318Z,66.53
2017-12-12T10:31:36.415Z,66.16
2017-12-12T10:32:45.241Z,66.44
2017-12-12T10:33:54.066Z,66.25
2017-12-12T10:35:03.041Z,66.63
2017-12-12T10:36:11.865Z,66.25
2017-12-12T10:37:20.687Z,66.82
2017-12-12T10:38:29.509Z,66.63
2017-12-12T10:39:38.333Z,66.35
2017-12-12T10:40:47.260Z,66.82
2017-12-12T10:41:56.088Z,66.35
2017-12-12T10:43:04.911Z,66.25
2017-12-12T10:44:13.737Z,66.53
2017-12-12T10:45:22.561Z,66.35
2017-12-12T10:46:31.631Z,66.44
2017-12-12T10:47:40.457Z,66.25
2017-12-12T10:48:49.281Z,66.35
2017-12-12T10:49:58.106Z,66.35
2017-12-12T10:51:06.927Z,66.35
2017-12-12T10:52:16.053Z,66.35
2017-12-12T10:53:24.878Z,66.35
2017-12-12T10:54:33.699Z,65.88
2017-12-12T10:55:42.521Z,66.25
2017-12-12T10:56:51.348Z,66.16
2017-12-12T10:58:00.478Z,66.73
2017-12-12T10:59:09.302Z,66.63
2017-12-12T11:00:18.133Z,66.53
2017-12-12T11:01:27.244Z,66.44
2017-12-12T11:02:36.339Z,66.53
2017-12-12T11:03:45.264Z,66.35
2017-12-12T11:04:54.089Z,65.97
2017-12-12T11:06:03.191Z,66.63
2017-12-12T11:07:12.014Z,66.06
2017-12-12T11:08:20.837Z,66.16
2017-12-12T11:09:30.064Z,66.44
2017-12-12T11:10:39.162Z,66.35
2017-12-12T11:11:47.986Z,66.44
2017-12-12T11:12:56.813Z,66.16
2017-12-12T11:14:05.636Z,66.35
2017-12-12T11:15:14.560Z,66.44
2017-12-12T11:16:23.385Z,66.16
2017-12-12T11:17:32.209Z,66.25
2017-12-12T11:18:41.035Z,66.35
2017-12-12T11:19:49.856Z,66.16
2017-12-12T11:20:58.680Z,66.35
2017-12-12T11:22:07.502Z,66.06
2017-12-12T11:23:16.330Z,65.31
2017-12-12T11:24:25.156Z,65.5
2017-12-12T11:25:34.274Z,66.16
2017-12-12T11:26:43.099Z,65.59
2017-12-12T11:27:51.924Z,65.21
2017-12-12T11:29:00.747Z,65.4
2017-12-12T11:30:09.566Z,65.69
2017-12-12T11:31:18.544Z,65.31
2017-12-12T11:32:27.365Z,64.93
2017-12-12T11:33:36.190Z,64.55
2017-12-12T11:34:45.014Z,64.64
2017-12-12T11:35:53.839Z,64.64
2017-12-12T11:37:03.089Z,64.36
2017-12-12T11:38:11.915Z,64.45
2017-12-12T11:39:20.738Z,64.64
2017-12-12T11:40:29.559Z,64.93
2017-12-12T11:41:38.384Z,64.83
2017-12-12T11:42:47.208Z,64.33
2017-12-12T11:43:56.030Z,63.32
2017-12-12T11:45:04.854Z,63.32
2017-12-12T11:46:13.678Z,63.6
2017-12-12T11:47:22.504Z,63.23
2017-12-12T11:48:31.439Z,62.94
2017-12-12T11:49:40.266Z,62.75
2017-12-12T11:50:49.097Z,62.28
2017-12-12T11:51:57.946Z,62.47
2017-12-12T11:53:06.740Z,62.28
2017-12-12T11:54:15.792Z,61.71
2017-12-12T11:55:24.998Z,61.33
2017-12-12T11:56:33.823Z,61.24
2017-12-12T11:57:42.684Z,61.52
2017-12-12T11:58:51.511Z,60.58
2017-12-12T12:00:00.360Z,60.58
2017-12-12T12:01:09.219Z,60.58
2017-12-12T12:02:18.384Z,60.67
2017-12-12T12:03:27.307Z,60.86
2017-12-12T12:04:37.586Z,60.58
2017-12-12T12:05:47.151Z,60.77
2017-12-12T12:06:57.472Z,60.58
2017-12-12T12:08:06.619Z,60.19
2017-12-12T12:09:18.782Z,59.53
2017-12-12T12:10:27.610Z,59.56
2017-12-12T12:11:36.764Z,59.53
2017-12-12T12:12:46.051Z,58.9
2017-12-12T12:13:55.298Z,59.44
2017-12-12T12:15:04.222Z,60
2017-12-12T12:16:13.621Z,59.44
2017-12-12T12:19:01.629Z,59.44
2017-12-12T12:20:11.967Z,59.81
2017-12-12T12:21:21.019Z,59.25
2017-12-12T12:24:09.907Z,59.63
2017-12-12T12:25:19.022Z,58.78
2017-12-12T12:26:28.174Z,59.25
2017-12-12T12:27:37.091Z,59.09
2017-12-12T12:28:46.021Z,58.78
2017-12-12T12:29:54.849Z,59.06
2017-12-12T12:31:03.914Z,59.34
2017-12-12T12:32:13.172Z,59.25
2017-12-12T12:33:22.084Z,58.87
2017-12-12T12:34:30.917Z,59.28
2017-12-12T12:35:39.747Z,59
2017-12-12T12:36:48.573Z,59.47
2017-12-12T12:37:57.397Z,59.28
2017-12-12T12:39:06.371Z,59.38
2017-12-12T12:40:15.205Z,59
2017-12-12T12:41:24.029Z,59.25
2017-12-12T12:42:32.850Z,59.47
2017-12-12T12:43:41.677Z,59.19
2017-12-12T12:44:50.908Z,58.71
2017-12-12T12:45:59.775Z,58.52
2017-12-12T12:47:08.558Z,59
2017-12-12T12:48:17.430Z,58.71
2017-12-12T12:49:26.254Z,58.71
2017-12-12T12:50:35.230Z,58.71
2017-12-12T12:51:44.053Z,58.71
2017-12-12T12:52:52.904Z,58.81
2017-12-12T12:54:01.728Z,59
2017-12-12T12:55:10.580Z,58.81
2017-12-12T12:56:19.557Z,58.9
2017-12-12T12:57:28.384Z,57.95
2017-12-12T12:58:37.486Z,57.48
2017-12-12T12:59:46.349Z,57.39
2017-12-12T13:00:55.203Z,58.24
2017-12-12T13:02:04.161Z,58.52
2017-12-12T13:03:13.006Z,58.52
2017-12-12T13:04:21.836Z,58.43
2017-12-12T13:05:30.659Z,58.14
2017-12-12T13:06:39.522Z,58.33
2017-12-12T13:07:48.401Z,57.39
2017-12-12T13:08:57.228Z,58.24
2017-12-12T13:10:06.056Z,57.48
2017-12-12T13:11:14.880Z,57.86
2017-12-12T13:12:23.705Z,57.39
2017-12-12T13:13:32.734Z,57.01
2017-12-12T13:14:41.553Z,57.32
2017-12-12T13:15:50.378Z,57.57
2017-12-12T13:16:59.205Z,55.87
2017-12-12T13:18:08.029Z,56.63
2017-12-12T13:19:16.917Z,55.77
2017-12-12T13:20:25.729Z,56.75
2017-12-12T13:21:34.556Z,57.1
2017-12-12T13:22:43.386Z,57.1
2017-12-12T13:23:52.210Z,56.72
2017-12-12T13:25:01.183Z,56.82
2017-12-12T13:26:10.009Z,57.57
2017-12-12T13:27:18.833Z,57.67
2017-12-12T13:28:27.658Z,57.39
2017-12-12T13:29:36.487Z,57.57
2017-12-12T13:30:45.458Z,57.48
2017-12-12T13:31:54.559Z,56.91
2017-12-12T13:33:03.383Z,57.2
2017-12-12T13:34:12.210Z,57.39
2017-12-12T13:35:21.033Z,57.57
2017-12-12T13:36:29.909Z,57.35
2017-12-12T13:37:38.732Z,57.39
2017-12-12T13:38:47.555Z,57.1
2017-12-12T13:39:56.387Z,56.91
2017-12-12T13:41:05.212Z,57.2
2017-12-12T13:42:14.088Z,57.48
2017-12-12T13:43:22.912Z,56.91
2017-12-12T13:44:31.734Z,57.01
2017-12-12T13:45:40.559Z,57.39
2017-12-12T13:46:49.656Z,57.01
2017-12-12T13:47:58.631Z,56.91
2017-12-12T13:49:07.456Z,56.63
2017-12-12T13:50:16.560Z,57.39
2017-12-12T13:51:25.382Z,57.76
2017-12-12T13:52:34.206Z,57.45
2017-12-12T13:53:43.031Z,57.45
2017-12-12T13:54:51.855Z,57.83
2017-12-12T13:56:00.682Z,57.35
2017-12-12T13:57:09.509Z,57.2
2017-12-12T13:58:18.336Z,57.73
2017-12-12T13:59:27.214Z,57.54
2017-12-12T14:00:36.038Z,57.45
2017-12-12T14:01:44.863Z,57.64
2017-12-12T14:02:53.688Z,57.45
2017-12-12T14:04:02.512Z,57.45
2017-12-12T14:05:11.737Z,57.64
2017-12-12T14:06:20.559Z,58.21
2017-12-12T14:07:29.382Z,58.02
2017-12-12T14:08:38.207Z,57.64
2017-12-12T14:09:47.030Z,57.39
2017-12-12T14:10:56.004Z,57.73
2017-12-12T14:12:04.826Z,57.35
2017-12-12T14:13:13.652Z,57.17
2017-12-12T14:14:22.477Z,57.35
2017-12-12T14:15:31.301Z,56.79
2017-12-12T14:16:40.274Z,57.17
2017-12-12T14:17:49.099Z,57.64
2017-12-12T14:18:57.928Z,57.35
2017-12-12T14:20:06.752Z,56.98
2017-12-12T14:21:15.573Z,56.6
2017-12-12T14:22:24.549Z,56.53
2017-12-12T14:23:33.377Z,56.51
2017-12-12T14:24:42.201Z,56.6
2017-12-12T14:25:51.298Z,56.79
2017-12-12T14:27:00.122Z,56.79
2017-12-12T14:28:09.001Z,56.6
2017-12-12T14:29:18.107Z,56.22
2017-12-12T14:30:26.930Z,56.41
2017-12-12T14:31:35.753Z,57.07
2017-12-12T14:32:44.576Z,56.88
2017-12-12T14:33:53.553Z,56.7
2017-12-12T14:35:02.666Z,56.51
2017-12-12T14:36:11.488Z,57.26
2017-12-12T14:37:20.316Z,57.45
2017-12-12T14:38:29.137Z,57.54
2017-12-12T14:39:38.233Z,57.54
2017-12-12T14:40:47.057Z,57.45
2017-12-12T14:41:56.167Z,57.45
2017-12-12T14:43:05.000Z,58.21
2017-12-12T14:44:13.824Z,57.73
2017-12-12T14:45:22.799Z,57.64
2017-12-12T14:46:31.624Z,57.64
2017-12-12T14:47:40.451Z,57.07
2017-12-12T14:48:49.298Z,57.35
2017-12-12T14:49:58.131Z,57.45
2017-12-12T14:51:07.230Z,57.54
2017-12-12T14:52:16.056Z,57.35
2017-12-12T14:53:24.884Z,57.54